map of DZA home
DZA - Airport
Location
City:  Dzaoudzi, Pamandzi Island, Mayotte
Name:Dzaoudzi-Pamandzi
ICAO:FMCZ
IATA:DZA

Details
Type:Airport (Aerodrome, Airfield)
Latitude:1248'24"S (-12.806666)
Longitude:4516'50"E (45.280556)
Elevation:23 ft (7 m)
Variation:8.26W (WMM2015v2 magnetic declination)
-0.05 annual change
Runways:1
Longest:6330 × 92 ft (1929 × 28 m), paved

Time
Time Zone:UTC+3
Local Time:

Weather
METAR:FMCZ 041400Z AUTO 13004KT 100V160 9999 FEW019/// BKN035/// BKN047/// ///CB 29/25 Q1009 TEMPO 4500 SHRA BECMG SCT022
TAF:FMCZ 032300Z 0400/0424 VRB03KT 9999 SCT024

Related Locations
Nearby:
Farthest:ITO: 11017 mi / 17730 km
Hilo [Hilo Intl], Hawaii, HI, US

Find:

   beyond  
but within

Other Information
Maps:
NOTAMs:
Links:
Sources:

  
  • flag of Mayotte
  

Sectional Chart

Flight Planning
at skyvector.com

Satellite Image

Google Maps Satellite view

 

Copyright © 2004-2019 Karl L. Swartz. All rights reserved.
The Great Circle Mapper name and logo are trademarks of the Great Circle Mapper.
All other trademarks mentioned herein belong to their respective owners.
Please see credits for attibutions and further copyright information.

  Follow gcmap on Facebook Follow gcmap on Twitter GCmap on LinkedIn

hCard Microformat

Geo Microformat